Time;durP1;ratioP1;P1;durP2;ratioP2;P2;SDS_P1;SDS_P2;PMS_P1;PMS_P2;Temp;Humidity;BMP_temperature;BMP_pressure;BME280_temperature;BME280_humidity;BME280_pressure;Samples;Min_cycle;Max_cycle;Signal;HPM_P1;HPM_P2
2024/03/26 00:01:05;;;;;;;;;;;0.70;99.90;;;;;;5033033;28;19921;-61
2024/03/26 00:03:30;;;;;;;;;;;0.60;99.90;;;;;;5040868;28;19929;-61
2024/03/26 00:05:56;;;;;;;;;;;0.70;99.90;;;;;;5032821;28;19917;-61
2024/03/26 00:08:23;;;;;;;;;;;0.70;99.90;;;;;;5032072;28;20320;-61
2024/03/26 00:10:48;;;;;;;;;;;0.70;99.90;;;;;;5032880;28;19909;-59
2024/03/26 00:13:14;;;;;;;;;;;0.70;99.90;;;;;;5033926;28;20016;-61
2024/03/26 00:15:39;;;;;;;;;;;0.70;99.90;;;;;;5047846;28;20369;-59
2024/03/26 00:18:05;;;;;;;;;;;0.60;99.90;;;;;;5040670;28;20408;-60
2024/03/26 00:20:30;;;;;;;;;;;0.60;99.90;;;;;;5036019;28;19919;-60
2024/03/26 00:22:55;;;;;;;;;;;0.60;99.90;;;;;;5037332;28;20408;-60
2024/03/26 00:25:21;;;;;;;;;;;0.70;99.90;;;;;;5032251;28;19924;-59
2024/03/26 00:27:46;;;;;;;;;;;0.60;99.90;;;;;;5037430;28;19924;-61
2024/03/26 00:30:12;;;;;;;;;;;0.60;99.90;;;;;;5035218;28;19917;-59
2024/03/26 00:32:37;;;;;;;;;;;0.60;99.90;;;;;;5039284;28;19913;-58
2024/03/26 00:35:03;;;;;;;;;;;0.60;99.90;;;;;;5032416;28;19924;-60
2024/03/26 00:37:28;;;;;;;;;;;0.60;99.90;;;;;;5048736;28;20259;-59
2024/03/26 00:39:54;;;;;;;;;;;0.60;99.90;;;;;;5039997;28;19917;-60
2024/03/26 00:42:19;;;;;;;;;;;0.60;99.90;;;;;;5031880;28;20327;-59
2024/03/26 00:44:45;;;;;;;;;;;0.60;99.90;;;;;;5037806;28;19958;-58
2024/03/26 00:47:10;;;;;;;;;;;0.60;99.90;;;;;;5034207;28;20366;-60
2024/03/26 00:49:36;;;;;;;;;;;0.50;99.90;;;;;;5031518;28;19917;-60
2024/03/26 00:52:01;;;;;;;;;;;0.50;99.90;;;;;;5040009;28;20090;-60
2024/03/26 00:54:27;;;;;;;;;;;0.50;99.90;;;;;;5031991;28;20022;-58
2024/03/26 00:56:52;;;;;;;;;;;0.30;99.90;;;;;;5039878;28;19944;-60
2024/03/26 00:59:17;;;;;;;;;;;0.30;99.90;;;;;;5031027;28;20397;-58
2024/03/26 01:01:43;;;;;;;;;;;0.30;99.90;;;;;;5030570;28;19941;-60
2024/03/26 01:04:08;;;;;;;;;;;0.40;99.90;;;;;;5031661;28;20023;-58
2024/03/26 01:06:34;;;;;;;;;;;0.40;99.90;;;;;;5031696;28;20005;-59
2024/03/26 01:08:59;;;;;;;;;;;0.50;99.90;;;;;;5031153;28;20347;-59
2024/03/26 01:11:25;;;;;;;;;;;0.40;99.90;;;;;;5031433;28;19924;-59
2024/03/26 01:13:52;;;;;;;;;;;0.40;99.90;;;;;;5037914;28;19950;-56
2024/03/26 01:16:17;;;;;;;;;;;0.40;99.90;;;;;;5032892;28;20358;-60
2024/03/26 01:18:43;;;;;;;;;;;0.40;99.90;;;;;;5044497;28;19931;-58
2024/03/26 01:21:08;;;;;;;;;;;0.40;99.90;;;;;;5042258;28;20407;-59
2024/03/26 01:23:34;;;;;;;;;;;0.40;99.90;;;;;;5031281;28;19931;-58
2024/03/26 01:25:59;;;;;;;;;;;0.40;99.90;;;;;;5031209;28;20682;-58
2024/03/26 01:28:25;;;;;;;;;;;0.40;99.90;;;;;;5030478;28;19917;-57
2024/03/26 01:30:50;;;;;;;;;;;0.30;99.90;;;;;;5037620;28;19913;-59
2024/03/26 01:33:16;;;;;;;;;;;0.30;99.90;;;;;;5032851;28;19951;-59
2024/03/26 01:35:49;;;;;;;;;;;0.30;99.90;;;;;;5030995;28;20031;-59
2024/03/26 01:38:15;;;;;;;;;;;0.20;99.90;;;;;;5046520;28;20319;-59
2024/03/26 01:40:40;;;;;;;;;;;0.20;99.90;;;;;;5030662;28;19924;-59
2024/03/26 01:43:06;;;;;;;;;;;0.30;99.90;;;;;;5031212;28;20402;-59
2024/03/26 01:45:31;;;;;;;;;;;0.30;99.90;;;;;;5042328;28;19954;-58
2024/03/26 01:47:57;;;;;;;;;;;0.30;99.90;;;;;;5035312;28;19928;-58
2024/03/26 01:50:22;;;;;;;;;;;0.30;99.90;;;;;;5041074;28;20437;-60
2024/03/26 01:52:48;;;;;;;;;;;0.30;99.90;;;;;;5036699;28;19944;-60
2024/03/26 01:55:14;;;;;;;;;;;0.20;99.90;;;;;;5039946;28;20307;-59
2024/03/26 01:57:40;;;;;;;;;;;0.30;99.90;;;;;;5037396;28;19952;-60
2024/03/26 02:00:06;;;;;;;;;;;0.30;99.90;;;;;;5038486;28;20430;-58
2024/03/26 02:02:32;;;;;;;;;;;0.30;99.90;;;;;;5038569;28;20048;-60
2024/03/26 02:04:58;;;;;;;;;;;0.30;99.90;;;;;;5030570;28;20025;-60
2024/03/26 02:07:23;;;;;;;;;;;0.40;99.90;;;;;;5041089;28;20323;-58
2024/03/26 02:09:49;;;;;;;;;;;0.40;99.90;;;;;;5041693;28;19973;-58
2024/03/26 02:12:14;;;;;;;;;;;0.50;99.90;;;;;;5032456;28;20272;-58
2024/03/26 02:14:40;;;;;;;;;;;0.50;99.90;;;;;;5035248;28;19960;-57
2024/03/26 02:17:05;;;;;;;;;;;0.50;99.90;;;;;;5041774;28;20499;-58
2024/03/26 02:19:31;;;;;;;;;;;0.50;99.90;;;;;;5029898;28;19928;-60
2024/03/26 02:21:56;;;;;;;;;;;0.50;99.90;;;;;;5030358;28;19992;-61
2024/03/26 02:24:22;;;;;;;;;;;0.60;99.90;;;;;;5032496;28;19930;-61
2024/03/26 02:26:47;;;;;;;;;;;0.70;99.90;;;;;;5036478;28;19949;-60
2024/03/26 02:29:13;;;;;;;;;;;0.70;99.90;;;;;;5029717;28;19927;-61
2024/03/26 02:31:38;;;;;;;;;;;0.80;99.90;;;;;;5030134;28;19970;-59
2024/03/26 02:34:04;;;;;;;;;;;0.70;99.90;;;;;;5030017;28;19969;-59
2024/03/26 02:36:29;;;;;;;;;;;0.80;99.90;;;;;;5041454;28;19944;-59
2024/03/26 02:38:55;;;;;;;;;;;0.70;99.90;;;;;;5034412;28;19942;-59
2024/03/26 02:41:20;;;;;;;;;;;0.70;99.90;;;;;;5031750;28;19934;-60
2024/03/26 02:43:48;;;;;;;;;;;0.70;99.90;;;;;;5036172;28;20375;-60
2024/03/26 02:46:14;;;;;;;;;;;0.60;99.90;;;;;;5029673;28;19959;-61
2024/03/26 02:48:39;;;;;;;;;;;0.70;99.90;;;;;;5029522;28;19920;-61
2024/03/26 02:51:05;;;;;;;;;;;0.60;99.90;;;;;;5037775;28;19923;-60
2024/03/26 02:53:30;;;;;;;;;;;0.60;99.90;;;;;;5038051;28;20039;-61
2024/03/26 02:55:56;;;;;;;;;;;0.70;99.90;;;;;;5037852;28;20034;-60
2024/03/26 02:58:21;;;;;;;;;;;0.70;99.90;;;;;;5037437;28;20323;-61
2024/03/26 03:00:47;;;;;;;;;;;0.60;99.90;;;;;;5035606;28;19947;-61
2024/03/26 03:03:12;;;;;;;;;;;0.60;99.90;;;;;;5033423;28;20079;-61
2024/03/26 03:05:39;;;;;;;;;;;0.70;99.90;;;;;;5041152;28;20429;-60
2024/03/26 03:08:05;;;;;;;;;;;0.70;99.90;;;;;;5041582;28;19928;-61
2024/03/26 03:10:30;;;;;;;;;;;0.70;99.90;;;;;;5029173;28;19928;-60
2024/03/26 03:12:56;;;;;;;;;;;0.70;99.90;;;;;;5029578;28;20078;-61
2024/03/26 03:15:21;;;;;;;;;;;0.80;99.90;;;;;;5031558;28;19935;-61
2024/03/26 03:17:47;;;;;;;;;;;0.80;99.90;;;;;;5035691;28;19950;-61
2024/03/26 03:20:13;;;;;;;;;;;0.90;99.90;;;;;;5037377;28;20012;-60
2024/03/26 03:22:38;;;;;;;;;;;1.00;99.90;;;;;;5034353;28;20063;-60
2024/03/26 03:25:04;;;;;;;;;;;1.00;99.90;;;;;;5033397;28;20040;-60
2024/03/26 03:27:30;;;;;;;;;;;1.00;99.90;;;;;;5037344;28;20426;-59
2024/03/26 03:29:55;;;;;;;;;;;1.00;99.90;;;;;;5029037;28;20805;-60
2024/03/26 03:32:21;;;;;;;;;;;1.00;99.90;;;;;;5031502;28;19931;-60
2024/03/26 03:34:46;;;;;;;;;;;0.90;99.90;;;;;;5035714;28;20016;-60
2024/03/26 03:37:12;;;;;;;;;;;1.00;99.90;;;;;;5037488;28;19912;-58
2024/03/26 03:39:38;;;;;;;;;;;1.00;99.90;;;;;;5037205;28;19983;-61
2024/03/26 03:42:03;;;;;;;;;;;1.10;99.90;;;;;;5037394;28;19917;-61
2024/03/26 03:44:35;;;;;;;;;;;1.10;99.90;;;;;;5032749;28;19930;-59
2024/03/26 03:47:03;;;;;;;;;;;1.20;99.90;;;;;;5041812;28;20046;-61
2024/03/26 03:49:29;;;;;;;;;;;1.10;99.90;;;;;;5040551;28;19965;-61
2024/03/26 03:51:56;;;;;;;;;;;1.20;99.90;;;;;;5042635;28;20374;-61
2024/03/26 03:54:22;;;;;;;;;;;1.20;99.90;;;;;;5031252;28;19924;-59
2024/03/26 03:56:47;;;;;;;;;;;1.10;99.90;;;;;;5035004;28;19951;-61
2024/03/26 03:59:13;;;;;;;;;;;1.20;99.90;;;;;;5028770;28;19932;-60
2024/03/26 04:01:38;;;;;;;;;;;1.20;99.90;;;;;;5016771;28;19959;-61
2024/03/26 04:04:04;;;;;;;;;;;1.20;99.90;;;;;;5036814;28;19953;-61
2024/03/26 04:06:29;;;;;;;;;;;1.20;99.90;;;;;;5040758;28;20030;-61
2024/03/26 04:08:55;;;;;;;;;;;1.20;99.90;;;;;;5032249;28;19935;-61
2024/03/26 04:11:20;;;;;;;;;;;1.20;99.90;;;;;;5040765;28;19951;-60
2024/03/26 04:13:46;;;;;;;;;;;1.30;99.90;;;;;;5032627;28;20044;-61
2024/03/26 04:16:11;;;;;;;;;;;1.20;99.90;;;;;;5033164;28;20285;-61
2024/03/26 04:18:36;;;;;;;;;;;1.20;99.90;;;;;;5039629;28;19913;-61
2024/03/26 04:21:02;;;;;;;;;;;1.10;99.90;;;;;;5032534;28;20020;-61
2024/03/26 04:23:27;;;;;;;;;;;1.10;99.90;;;;;;5032398;28;19945;-60
2024/03/26 04:25:59;;;;;;;;;;;1.10;99.90;;;;;;5040635;28;19917;-61
2024/03/26 04:28:26;;;;;;;;;;;1.00;99.90;;;;;;5031559;28;19964;-61
2024/03/26 04:30:51;;;;;;;;;;;0.90;99.90;;;;;;5040821;28;19927;-60
2024/03/26 04:33:17;;;;;;;;;;;0.90;99.90;;;;;;5041684;28;20387;-60
2024/03/26 04:35:44;;;;;;;;;;;0.80;99.90;;;;;;5047314;28;19945;-61
2024/03/26 04:38:09;;;;;;;;;;;0.90;99.90;;;;;;5032115;28;19933;-61
2024/03/26 04:40:36;;;;;;;;;;;0.80;99.90;;;;;;5031659;28;19993;-61
2024/03/26 04:43:01;;;;;;;;;;;0.80;99.90;;;;;;5040351;28;20460;-61
2024/03/26 04:45:27;;;;;;;;;;;0.70;99.90;;;;;;5048275;28;20023;-61
2024/03/26 04:47:53;;;;;;;;;;;0.70;99.90;;;;;;5032107;28;19955;-60
2024/03/26 04:50:18;;;;;;;;;;;0.70;99.90;;;;;;5039754;28;19975;-61
2024/03/26 04:52:43;;;;;;;;;;;0.60;99.90;;;;;;5040303;28;19943;-62
2024/03/26 04:55:09;;;;;;;;;;;0.50;99.90;;;;;;5040316;28;19941;-61
2024/03/26 04:57:34;;;;;;;;;;;0.50;99.90;;;;;;5035731;28;19940;-60
2024/03/26 05:00:00;;;;;;;;;;;0.50;99.90;;;;;;5043284;28;20302;-61
2024/03/26 05:02:26;;;;;;;;;;;0.50;99.90;;;;;;5032630;28;20023;-60
2024/03/26 05:04:51;;;;;;;;;;;0.40;99.90;;;;;;5039967;28;19975;-61
2024/03/26 05:07:17;;;;;;;;;;;0.40;99.90;;;;;;5039501;28;19949;-61
2024/03/26 05:09:42;;;;;;;;;;;0.40;99.90;;;;;;5031297;28;19923;-61
2024/03/26 05:12:07;;;;;;;;;;;0.50;99.90;;;;;;5039518;28;19951;-60
2024/03/26 05:14:33;;;;;;;;;;;0.40;99.90;;;;;;5034981;28;19955;-60
2024/03/26 05:16:58;;;;;;;;;;;0.50;99.90;;;;;;5036195;28;20403;-60
2024/03/26 05:19:24;;;;;;;;;;;0.50;99.90;;;;;;5030880;28;19951;-61
2024/03/26 05:21:49;;;;;;;;;;;0.50;99.90;;;;;;5031170;28;19931;-61
2024/03/26 05:24:15;;;;;;;;;;;0.40;99.90;;;;;;5039794;28;19958;-60
2024/03/26 05:26:40;;;;;;;;;;;0.50;99.90;;;;;;5050368;28;20268;-61
2024/03/26 05:29:06;;;;;;;;;;;0.60;99.90;;;;;;5041469;28;19981;-60
2024/03/26 05:31:31;;;;;;;;;;;0.70;99.90;;;;;;5030483;28;19925;-59
2024/03/26 05:33:56;;;;;;;;;;;0.80;99.90;;;;;;5030381;28;19948;-59
2024/03/26 05:36:22;;;;;;;;;;;0.80;99.90;;;;;;5037444;28;20469;-61
2024/03/26 05:38:47;;;;;;;;;;;0.80;99.90;;;;;;5012004;28;19932;-61
2024/03/26 05:41:13;;;;;;;;;;;0.80;99.90;;;;;;5046487;28;19931;-60
2024/03/26 05:43:38;;;;;;;;;;;0.90;99.90;;;;;;5030118;28;19994;-61
2024/03/26 05:46:04;;;;;;;;;;;1.00;99.90;;;;;;5030094;28;20532;-61
2024/03/26 05:48:30;;;;;;;;;;;1.00;99.90;;;;;;5029700;28;19947;-60
2024/03/26 05:50:55;;;;;;;;;;;1.00;99.90;;;;;;5012232;28;20015;-60
2024/03/26 05:53:21;;;;;;;;;;;1.10;99.90;;;;;;5029928;28;20419;-60
2024/03/26 05:55:46;;;;;;;;;;;1.10;99.90;;;;;;5029947;28;19909;-61
2024/03/26 05:58:13;;;;;;;;;;;1.20;99.90;;;;;;5029613;28;20343;-61
2024/03/26 06:00:38;;;;;;;;;;;1.30;99.90;;;;;;5033829;28;20113;-61
2024/03/26 06:03:04;;;;;;;;;;;1.40;99.90;;;;;;5033774;28;20411;-61
2024/03/26 06:05:29;;;;;;;;;;;1.40;99.90;;;;;;5046079;28;20003;-59
2024/03/26 06:07:55;;;;;;;;;;;1.50;99.90;;;;;;5029644;28;20372;-61
2024/03/26 06:10:20;;;;;;;;;;;1.60;99.90;;;;;;5037279;28;20363;-61
2024/03/26 06:12:46;;;;;;;;;;;1.70;99.90;;;;;;5029768;28;19963;-61
2024/03/26 06:15:12;;;;;;;;;;;1.80;99.90;;;;;;5037613;28;20306;-60
2024/03/26 06:17:37;;;;;;;;;;;2.00;99.90;;;;;;5034633;28;19924;-60
2024/03/26 06:20:04;;;;;;;;;;;2.10;99.90;;;;;;5029129;28;20076;-61
2024/03/26 06:22:30;;;;;;;;;;;2.30;99.90;;;;;;5029328;28;19913;-60
2024/03/26 06:24:55;;;;;;;;;;;2.40;99.90;;;;;;5035322;28;19970;-61
2024/03/26 06:27:20;;;;;;;;;;;2.50;99.90;;;;;;5037262;28;20041;-61
2024/03/26 06:29:46;;;;;;;;;;;2.60;99.90;;;;;;5038607;28;19916;-60
2024/03/26 06:32:11;;;;;;;;;;;2.70;99.90;;;;;;5037154;28;19983;-60
2024/03/26 06:34:37;;;;;;;;;;;2.80;99.90;;;;;;5038337;28;20072;-61
2024/03/26 06:37:03;;;;;;;;;;;2.80;99.90;;;;;;5038644;28;19916;-60
2024/03/26 06:39:28;;;;;;;;;;;2.70;99.90;;;;;;5036908;28;19917;-58
2024/03/26 06:41:54;;;;;;;;;;;2.80;99.90;;;;;;5036847;28;19921;-59
2024/03/26 06:44:19;;;;;;;;;;;2.90;99.90;;;;;;5037272;28;20269;-60
2024/03/26 06:46:45;;;;;;;;;;;3.00;99.90;;;;;;5037049;28;19929;-60
2024/03/26 06:49:11;;;;;;;;;;;3.10;99.90;;;;;;5028392;28;20316;-61
2024/03/26 06:51:37;;;;;;;;;;;3.20;99.90;;;;;;5032945;28;19913;-60
2024/03/26 06:54:02;;;;;;;;;;;3.30;99.90;;;;;;5033251;28;20031;-60
2024/03/26 06:56:28;;;;;;;;;;;3.40;99.90;;;;;;5028673;28;19957;-59
2024/03/26 06:58:54;;;;;;;;;;;3.40;99.90;;;;;;5028176;28;19928;-60
2024/03/26 07:01:20;;;;;;;;;;;3.50;99.90;;;;;;5028819;28;19959;-60
2024/03/26 07:03:46;;;;;;;;;;;3.50;99.90;;;;;;5028998;28;20407;-58
2024/03/26 07:06:12;;;;;;;;;;;3.60;99.90;;;;;;5028785;28;19917;-60
2024/03/26 07:08:37;;;;;;;;;;;3.80;99.90;;;;;;5028301;28;20451;-61
2024/03/26 07:11:03;;;;;;;;;;;3.90;99.90;;;;;;5029088;28;19956;-60
2024/03/26 07:13:29;;;;;;;;;;;3.90;99.90;;;;;;5028364;28;19935;-60
2024/03/26 07:15:54;;;;;;;;;;;4.00;99.90;;;;;;5034842;28;19927;-60
2024/03/26 07:18:19;;;;;;;;;;;4.00;99.90;;;;;;5032269;28;19917;-61
2024/03/26 07:20:46;;;;;;;;;;;4.10;99.90;;;;;;5036761;28;19917;-59
2024/03/26 07:23:12;;;;;;;;;;;4.20;99.90;;;;;;5029052;28;19909;-59
2024/03/26 07:25:37;;;;;;;;;;;4.30;99.90;;;;;;5036969;28;19920;-58
2024/03/26 07:28:03;;;;;;;;;;;4.30;99.90;;;;;;5028488;28;19917;-59
2024/03/26 07:30:28;;;;;;;;;;;4.50;99.90;;;;;;5036540;28;20365;-59
2024/03/26 07:32:53;;;;;;;;;;;4.40;99.90;;;;;;5042949;28;19952;-59
2024/03/26 07:35:19;;;;;;;;;;;4.50;99.90;;;;;;5038622;28;19917;-60
2024/03/26 07:37:45;;;;;;;;;;;4.60;99.90;;;;;;5031093;28;19971;-61
2024/03/26 07:40:10;;;;;;;;;;;4.70;99.90;;;;;;5031695;28;20281;-60
2024/03/26 07:42:36;;;;;;;;;;;4.80;99.90;;;;;;5032118;28;20245;-59
2024/03/26 07:45:01;;;;;;;;;;;4.90;99.90;;;;;;5039734;28;19913;-59
2024/03/26 07:47:27;;;;;;;;;;;5.00;99.90;;;;;;5032713;28;20020;-61
2024/03/26 07:49:52;;;;;;;;;;;5.10;99.90;;;;;;5031820;28;19913;-58
2024/03/26 07:52:18;;;;;;;;;;;5.20;99.90;;;;;;5033265;28;20004;-61
2024/03/26 07:54:43;;;;;;;;;;;5.30;99.90;;;;;;5043592;28;19997;-61
2024/03/26 07:57:09;;;;;;;;;;;5.40;99.90;;;;;;5043527;28;19917;-60
2024/03/26 07:59:34;;;;;;;;;;;5.40;99.90;;;;;;5031780;28;19929;-61
2024/03/26 08:02:00;;;;;;;;;;;5.40;99.90;;;;;;5039030;28;19967;-57
2024/03/26 08:04:25;;;;;;;;;;;5.50;99.90;;;;;;5041262;28;20357;-59
2024/03/26 08:06:51;;;;;;;;;;;5.70;99.90;;;;;;5037513;28;19967;-58
2024/03/26 08:09:16;;;;;;;;;;;5.80;99.90;;;;;;5034706;28;20282;-61
2024/03/26 08:11:42;;;;;;;;;;;5.90;99.90;;;;;;5047218;28;20028;-60
2024/03/26 08:14:07;;;;;;;;;;;6.10;99.90;;;;;;5031805;28;19952;-59
2024/03/26 08:16:33;;;;;;;;;;;6.20;99.90;;;;;;5031523;28;20459;-60
2024/03/26 08:18:58;;;;;;;;;;;6.30;99.90;;;;;;5031497;28;19924;-61
2024/03/26 08:21:24;;;;;;;;;;;6.50;99.90;;;;;;5041584;28;19920;-59
2024/03/26 08:23:49;;;;;;;;;;;6.60;99.90;;;;;;5038024;28;19943;-61
2024/03/26 08:26:14;;;;;;;;;;;6.60;99.90;;;;;;5039893;28;19947;-60
2024/03/26 08:28:41;;;;;;;;;;;6.70;99.90;;;;;;5030844;28;19947;-60
2024/03/26 08:31:07;;;;;;;;;;;6.80;99.90;;;;;;5039425;28;19939;-61
2024/03/26 08:33:32;;;;;;;;;;;7.00;99.90;;;;;;5031597;28;20012;-60
2024/03/26 08:36:06;;;;;;;;;;;6.90;99.90;;;;;;5040015;28;20139;-59
2024/03/26 08:38:32;;;;;;;;;;;6.80;99.90;;;;;;5042050;28;19957;-58
2024/03/26 08:40:57;;;;;;;;;;;7.00;99.90;;;;;;5044815;28;19952;-59
2024/03/26 08:43:23;;;;;;;;;;;7.00;99.90;;;;;;5031116;28;19928;-59
2024/03/26 08:45:48;;;;;;;;;;;7.10;99.90;;;;;;5036284;28;19920;-60
2024/03/26 08:48:14;;;;;;;;;;;7.20;99.90;;;;;;5033008;28;20328;-60
2024/03/26 08:50:40;;;;;;;;;;;7.20;99.90;;;;;;5030482;28;19917;-61
2024/03/26 08:53:05;;;;;;;;;;;7.20;99.90;;;;;;5039640;28;19943;-60
2024/03/26 08:55:31;;;;;;;;;;;7.20;99.90;;;;;;5033697;28;20269;-60
2024/03/26 08:57:57;;;;;;;;;;;7.30;99.90;;;;;;5036103;28;19925;-58
2024/03/26 09:00:22;;;;;;;;;;;7.40;99.90;;;;;;5038655;28;19920;-60
2024/03/26 09:02:48;;;;;;;;;;;7.60;99.90;;;;;;5039760;28;20324;-61
2024/03/26 09:05:13;;;;;;;;;;;7.70;99.90;;;;;;5031239;28;19923;-61
2024/03/26 09:07:39;;;;;;;;;;;7.80;99.90;;;;;;5031043;28;19961;-60
2024/03/26 09:10:07;;;;;;;;;;;7.90;99.90;;;;;;5030514;28;19924;-61
2024/03/26 09:12:33;;;;;;;;;;;7.90;99.90;;;;;;5021290;28;19953;-60
2024/03/26 09:14:58;;;;;;;;;;;8.00;99.90;;;;;;5030715;28;19998;-60
2024/03/26 09:17:24;;;;;;;;;;;8.00;99.90;;;;;;5046828;28;19940;-60
2024/03/26 09:19:49;;;;;;;;;;;8.10;99.90;;;;;;5030285;28;20000;-60
2024/03/26 09:22:15;;;;;;;;;;;8.00;99.90;;;;;;5038665;28;19920;-60
2024/03/26 09:24:40;;;;;;;;;;;8.00;99.90;;;;;;5038932;28;19923;-61
2024/03/26 09:27:06;;;;;;;;;;;7.90;99.90;;;;;;5030304;28;20296;-61
2024/03/26 09:29:31;;;;;;;;;;;7.80;99.90;;;;;;5038161;28;19929;-61
2024/03/26 09:31:56;;;;;;;;;;;7.90;99.90;;;;;;5030870;28;19927;-61
2024/03/26 09:34:23;;;;;;;;;;;7.80;99.90;;;;;;5038492;28;19917;-61
2024/03/26 09:36:49;;;;;;;;;;;7.90;99.90;;;;;;5030453;28;19960;-61
2024/03/26 09:39:14;;;;;;;;;;;7.80;99.90;;;;;;5030141;28;19959;-60
2024/03/26 09:41:40;;;;;;;;;;;7.80;99.90;;;;;;5034242;28;19941;-61
2024/03/26 09:44:06;;;;;;;;;;;7.80;99.90;;;;;;5034288;28;20389;-59
2024/03/26 09:46:34;;;;;;;;;;;7.80;99.90;;;;;;5038202;28;19971;-59
2024/03/26 09:49:01;;;;;;;;;;;8.00;99.90;;;;;;5036105;28;19967;-58
2024/03/26 09:51:26;;;;;;;;;;;8.10;99.90;;;;;;5031233;28;19925;-61
2024/03/26 09:53:54;;;;;;;;;;;8.20;99.90;;;;;;5038311;28;20336;-58
2024/03/26 09:56:21;;;;;;;;;;;8.30;99.90;;;;;;5029238;28;20419;-60
2024/03/26 09:58:47;;;;;;;;;;;8.20;99.90;;;;;;5028191;28;20085;-62
2024/03/26 10:01:13;;;;;;;;;;;8.10;99.90;;;;;;5029883;28;19975;-62
2024/03/26 10:03:38;;;;;;;;;;;8.30;99.90;;;;;;5037961;28;19920;-61
2024/03/26 10:06:04;;;;;;;;;;;8.40;99.90;;;;;;5045011;28;19923;-61
2024/03/26 10:08:29;;;;;;;;;;;8.50;99.90;;;;;;5029570;28;19948;-57
2024/03/26 10:10:55;;;;;;;;;;;8.50;99.90;;;;;;5035763;28;19955;-60
2024/03/26 10:13:22;;;;;;;;;;;8.60;99.90;;;;;;5039582;28;19982;-60
2024/03/26 10:15:48;;;;;;;;;;;8.70;99.90;;;;;;5029602;28;19916;-60
2024/03/26 10:18:13;;;;;;;;;;;8.60;99.90;;;;;;5029189;28;19917;-60
2024/03/26 10:20:39;;;;;;;;;;;8.50;99.90;;;;;;5029770;28;20487;-60
2024/03/26 10:23:06;;;;;;;;;;;8.60;99.90;;;;;;5045910;28;20339;-61
2024/03/26 10:25:32;;;;;;;;;;;8.40;99.90;;;;;;5041289;28;19960;-59
2024/03/26 10:27:59;;;;;;;;;;;8.50;99.90;;;;;;5034907;28;20592;-61
2024/03/26 10:30:24;;;;;;;;;;;8.40;99.90;;;;;;5028870;28;19913;-61
2024/03/26 10:32:57;;;;;;;;;;;8.30;99.90;;;;;;5029124;28;19917;-61
2024/03/26 10:35:24;;;;;;;;;;;8.30;99.90;;;;;;5029177;28;19915;-61
2024/03/26 10:37:54;;;;;;;;;;;8.30;99.90;;;;;;5037540;28;19909;-60
2024/03/26 10:40:25;;;;;;;;;;;8.30;99.90;;;;;;5028846;28;19956;-60
2024/03/26 10:42:54;;;;;;;;;;;8.30;99.90;;;;;;5034937;28;20280;-58
2024/03/26 10:45:20;;;;;;;;;;;8.40;99.90;;;;;;5031633;28;19917;-59
2024/03/26 10:47:46;;;;;;;;;;;8.50;99.90;;;;;;5029071;28;19913;-62
2024/03/26 10:50:11;;;;;;;;;;;8.60;99.90;;;;;;5028666;28;20256;-59
2024/03/26 10:52:37;;;;;;;;;;;8.70;99.90;;;;;;5032387;28;19916;-60
2024/03/26 10:55:03;;;;;;;;;;;8.80;99.90;;;;;;5039450;28;19940;-59
2024/03/26 10:57:29;;;;;;;;;;;9.10;99.90;;;;;;5032104;28;19920;-58
2024/03/26 10:59:55;;;;;;;;;;;9.30;99.90;;;;;;5034333;28;19921;-60
2024/03/26 11:02:21;;;;;;;;;;;9.50;99.90;;;;;;5037112;28;20403;-57
2024/03/26 11:04:46;;;;;;;;;;;9.40;99.90;;;;;;5033906;28;20008;-61
2024/03/26 11:07:13;;;;;;;;;;;9.40;99.90;;;;;;5032200;28;19920;-59
2024/03/26 11:09:39;;;;;;;;;;;9.60;99.90;;;;;;5036891;28;19953;-58
2024/03/26 11:12:09;;;;;;;;;;;9.80;99.90;;;;;;5032474;28;20006;-60
2024/03/26 11:14:41;;;;;;;;;;;9.90;99.90;;;;;;5032673;28;19917;-59
2024/03/26 11:17:13;;;;;;;;;;;9.80;99.90;;;;;;5040413;28;19920;-59
2024/03/26 11:19:39;;;;;;;;;;;9.80;99.90;;;;;;5044426;28;19917;-59
2024/03/26 11:22:05;;;;;;;;;;;9.60;99.90;;;;;;5037587;28;19917;-58
2024/03/26 11:24:31;;;;;;;;;;;9.60;99.90;;;;;;5033454;28;19935;-59
2024/03/26 11:26:58;;;;;;;;;;;9.60;99.90;;;;;;5032330;28;19980;-59
2024/03/26 11:29:24;;;;;;;;;;;9.80;99.90;;;;;;5032250;28;20388;-62
2024/03/26 11:31:49;;;;;;;;;;;9.80;99.90;;;;;;5032868;28;20388;-58
2024/03/26 11:34:15;;;;;;;;;;;9.90;99.90;;;;;;5048808;28;19924;-59
2024/03/26 11:36:41;;;;;;;;;;;10.00;99.90;;;;;;5032885;28;19959;-59
2024/03/26 11:39:06;;;;;;;;;;;10.00;99.90;;;;;;5039476;28;20312;-59
2024/03/26 11:41:32;;;;;;;;;;;10.10;99.90;;;;;;5033003;28;19945;-60
2024/03/26 11:43:59;;;;;;;;;;;10.00;99.90;;;;;;5038825;28;19931;-60
2024/03/26 11:46:25;;;;;;;;;;;10.10;99.90;;;;;;5050257;28;20435;-60
2024/03/26 11:48:57;;;;;;;;;;;10.40;99.90;;;;;;5031986;28;19913;-60
2024/03/26 11:51:22;;;;;;;;;;;10.70;99.90;;;;;;5032238;28;20007;-60
2024/03/26 11:53:48;;;;;;;;;;;10.90;99.90;;;;;;5031653;28;20003;-59
2024/03/26 11:56:14;;;;;;;;;;;11.00;99.90;;;;;;5048336;28;19948;-60
2024/03/26 11:58:39;;;;;;;;;;;11.00;99.90;;;;;;5031648;28;19913;-59
2024/03/26 12:01:06;;;;;;;;;;;10.90;99.90;;;;;;5032400;28;19917;-61
2024/03/26 12:03:32;;;;;;;;;;;10.60;99.90;;;;;;5032403;28;19939;-59
2024/03/26 12:05:58;;;;;;;;;;;10.60;99.90;;;;;;5032205;28;20381;-58
2024/03/26 12:08:24;;;;;;;;;;;10.80;99.90;;;;;;5031640;28;19924;-59
2024/03/26 12:10:49;;;;;;;;;;;10.80;99.90;;;;;;5031972;28;19921;-59
2024/03/26 12:13:15;;;;;;;;;;;10.70;99.90;;;;;;5032009;28;19921;-60
2024/03/26 12:15:40;;;;;;;;;;;11.00;99.90;;;;;;5031921;28;19913;-60
2024/03/26 12:18:06;;;;;;;;;;;11.30;99.90;;;;;;5022069;28;19916;-60
2024/03/26 12:20:31;;;;;;;;;;;11.40;99.90;;;;;;5013648;28;19944;-58
2024/03/26 12:22:57;;;;;;;;;;;11.20;99.90;;;;;;5029545;28;19921;-61
2024/03/26 12:25:22;;;;;;;;;;;11.30;99.90;;;;;;5039631;28;20016;-61
2024/03/26 12:27:48;;;;;;;;;;;11.40;99.90;;;;;;5044855;28;20324;-59
2024/03/26 12:30:14;;;;;;;;;;;11.30;99.90;;;;;;5042482;28;20047;-59
2024/03/26 12:32:39;;;;;;;;;;;11.20;99.90;;;;;;5031621;28;20365;-59
2024/03/26 12:35:05;;;;;;;;;;;11.30;99.90;;;;;;5031688;28;19925;-59
2024/03/26 12:37:31;;;;;;;;;;;11.30;99.90;;;;;;5050418;28;19916;-60
2024/03/26 12:39:56;;;;;;;;;;;11.50;99.90;;;;;;5036764;28;20272;-60
2024/03/26 12:42:22;;;;;;;;;;;11.80;99.90;;;;;;5039694;28;20289;-59
2024/03/26 12:44:48;;;;;;;;;;;11.80;99.90;;;;;;5039851;28;19932;-61
2024/03/26 12:47:13;;;;;;;;;;;11.90;99.90;;;;;;5039130;28;19921;-59
2024/03/26 12:49:39;;;;;;;;;;;12.10;99.90;;;;;;5031290;28;19929;-59
2024/03/26 12:52:04;;;;;;;;;;;12.20;99.90;;;;;;5031675;28;19925;-55
2024/03/26 12:54:30;;;;;;;;;;;12.30;99.90;;;;;;5038154;28;20033;-59
2024/03/26 12:56:56;;;;;;;;;;;12.40;99.90;;;;;;5030758;28;19909;-60
2024/03/26 12:59:22;;;;;;;;;;;12.20;99.90;;;;;;5030376;28;20019;-59
2024/03/26 13:01:47;;;;;;;;;;;12.20;99.90;;;;;;5031185;28;19913;-60
2024/03/26 13:04:13;;;;;;;;;;;12.40;99.90;;;;;;5039112;28;19936;-59
2024/03/26 13:06:39;;;;;;;;;;;12.40;99.90;;;;;;5030953;28;19936;-58
2024/03/26 13:09:05;;;;;;;;;;;12.70;99.90;;;;;;5030358;28;19917;-56
2024/03/26 13:11:30;;;;;;;;;;;12.60;99.90;;;;;;5032013;28;19913;-54
2024/03/26 13:13:56;;;;;;;;;;;12.70;99.90;;;;;;5050569;28;20014;-57
2024/03/26 13:16:21;;;;;;;;;;;12.60;99.90;;;;;;5032919;28;19913;-54
2024/03/26 13:18:47;;;;;;;;;;;12.70;99.90;;;;;;5038459;28;19917;-57
2024/03/26 13:21:12;;;;;;;;;;;13.00;99.90;;;;;;5047141;28;19912;-58
2024/03/26 13:23:38;;;;;;;;;;;13.30;99.90;;;;;;5030656;28;20355;-56
2024/03/26 13:26:04;;;;;;;;;;;13.60;99.90;;;;;;5045717;28;19913;-57
2024/03/26 13:28:29;;;;;;;;;;;13.50;99.90;;;;;;5033312;28;20112;-57
2024/03/26 13:30:55;;;;;;;;;;;13.50;99.90;;;;;;5042133;28;19917;-57
2024/03/26 13:33:22;;;;;;;;;;;13.60;99.90;;;;;;5042255;28;19939;-51
2024/03/26 13:35:47;;;;;;;;;;;13.50;99.90;;;;;;5038686;28;19917;-56
2024/03/26 13:38:13;;;;;;;;;;;13.60;99.90;;;;;;5038391;28;19913;-56
2024/03/26 13:40:38;;;;;;;;;;;13.90;99.90;;;;;;5038167;28;20366;-55
2024/03/26 13:43:04;;;;;;;;;;;13.90;99.90;;;;;;5036874;28;19913;-52
2024/03/26 13:45:30;;;;;;;;;;;13.40;99.90;;;;;;5041447;28;19920;-52
2024/03/26 13:47:56;;;;;;;;;;;13.40;99.90;;;;;;5041776;28;20014;-55
2024/03/26 13:50:21;;;;;;;;;;;13.70;99.90;;;;;;5031814;28;20409;-54
2024/03/26 13:52:47;;;;;;;;;;;13.90;99.90;;;;;;5038123;28;19946;-55
2024/03/26 13:55:12;;;;;;;;;;;13.80;99.90;;;;;;5037894;28;19924;-55
2024/03/26 13:57:37;;;;;;;;;;;13.70;99.90;;;;;;5046400;28;20007;-55
2024/03/26 14:00:04;;;;;;;;;;;13.80;99.90;;;;;;5044344;28;20301;-56
2024/03/26 14:02:29;;;;;;;;;;;13.90;99.90;;;;;;5033262;28;19917;-55
2024/03/26 14:04:55;;;;;;;;;;;14.00;99.90;;;;;;5044264;28;19937;-55
2024/03/26 14:07:20;;;;;;;;;;;14.10;99.90;;;;;;5030370;28;20008;-52
2024/03/26 14:09:46;;;;;;;;;;;14.10;99.90;;;;;;5041089;28;20334;-56
2024/03/26 14:12:11;;;;;;;;;;;14.30;99.90;;;;;;5033514;28;19923;-56
2024/03/26 14:14:37;;;;;;;;;;;14.30;99.90;;;;;;5037642;28;19917;-56
2024/03/26 14:17:04;;;;;;;;;;;14.40;99.90;;;;;;5044091;28;20340;-55
2024/03/26 14:19:29;;;;;;;;;;;14.30;99.90;;;;;;5032443;28;20471;-57